sensor_id;sensor_type;location;lat;lon;timestamp;temperature;humidity
47368;DHT22;34646;47.964;7.982;2023-06-22T00:01:21;23.40;91.40
47368;DHT22;34646;47.964;7.982;2023-06-22T00:07:25;23.60;91.40
47368;DHT22;34646;47.964;7.982;2023-06-22T00:13:26;23.30;83.80
47368;DHT22;34646;47.964;7.982;2023-06-22T00:19:26;23.20;91.30
47368;DHT22;34646;47.964;7.982;2023-06-22T00:25:27;23.50;91.40
47368;DHT22;34646;47.964;7.982;2023-06-22T00:31:28;23.10;91.30
47368;DHT22;34646;47.964;7.982;2023-06-22T00:37:28;23.30;91.30
47368;DHT22;34646;47.964;7.982;2023-06-22T00:43:29;23.40;85.10
47368;DHT22;34646;47.964;7.982;2023-06-22T00:49:30;23.40;89.60
47368;DHT22;34646;47.964;7.982;2023-06-22T00:55:31;23.90;91.40
47368;DHT22;34646;47.964;7.982;2023-06-22T01:01:32;23.50;91.40
47368;DHT22;34646;47.964;7.982;2023-06-22T01:14:00;23.30;91.20
47368;DHT22;34646;47.964;7.982;2023-06-22T01:20:02;23.40;91.20
47368;DHT22;34646;47.964;7.982;2023-06-22T01:32:40;23.30;91.20
47368;DHT22;34646;47.964;7.982;2023-06-22T01:38:42;24.10;91.50
47368;DHT22;34646;47.964;7.982;2023-06-22T01:44:43;23.50;91.50
47368;DHT22;34646;47.964;7.982;2023-06-22T01:50:45;23.30;91.20
47368;DHT22;34646;47.964;7.982;2023-06-22T01:56:46;23.20;84.40
47368;DHT22;34646;47.964;7.982;2023-06-22T02:03:19;23.10;81.80
47368;DHT22;34646;47.964;7.982;2023-06-22T02:09:22;23.20;91.20
47368;DHT22;34646;47.964;7.982;2023-06-22T02:15:24;23.60;91.30
47368;DHT22;34646;47.964;7.982;2023-06-22T02:21:29;23.10;91.10
47368;DHT22;34646;47.964;7.982;2023-06-22T02:27:30;23.20;91.10
47368;DHT22;34646;47.964;7.982;2023-06-22T02:33:31;23.30;91.10
47368;DHT22;34646;47.964;7.982;2023-06-22T02:39:32;23.70;84.50
47368;DHT22;34646;47.964;7.982;2023-06-22T02:45:32;23.10;91.10
47368;DHT22;34646;47.964;7.982;2023-06-22T02:51:34;23.50;91.30
47368;DHT22;34646;47.964;7.982;2023-06-22T02:57:35;23.80;91.30
47368;DHT22;34646;47.964;7.982;2023-06-22T03:03:36;23.10;91.40
47368;DHT22;34646;47.964;7.982;2023-06-22T03:09:36;22.90;91.00
47368;DHT22;34646;47.964;7.982;2023-06-22T03:21:38;23.30;91.10
47368;DHT22;34646;47.964;7.982;2023-06-22T03:27:40;23.10;91.10
47368;DHT22;34646;47.964;7.982;2023-06-22T03:33:41;23.00;91.10
47368;DHT22;34646;47.964;7.982;2023-06-22T03:39:42;23.30;91.10
47368;DHT22;34646;47.964;7.982;2023-06-22T03:45:43;23.60;91.20
47368;DHT22;34646;47.964;7.982;2023-06-22T03:57:48;21.10;89.40
47368;DHT22;34646;47.964;7.982;2023-06-22T04:03:48;21.80;93.10
47368;DHT22;34646;47.964;7.982;2023-06-22T04:09:49;21.30;88.50
47368;DHT22;34646;47.964;7.982;2023-06-22T04:15:50;20.80;93.80
47368;DHT22;34646;47.964;7.982;2023-06-22T04:21:51;21.00;93.70
47368;DHT22;34646;47.964;7.982;2023-06-22T04:27:51;20.70;94.20
47368;DHT22;34646;47.964;7.982;2023-06-22T04:33:52;20.90;94.30
47368;DHT22;34646;47.964;7.982;2023-06-22T04:57:57;21.50;89.40
47368;DHT22;34646;47.964;7.982;2023-06-22T05:04:04;22.10;92.90
47368;DHT22;34646;47.964;7.982;2023-06-22T05:10:07;22.50;92.50
47368;DHT22;34646;47.964;7.982;2023-06-22T05:16:07;22.00;92.00
47368;DHT22;34646;47.964;7.982;2023-06-22T05:22:09;22.20;91.90
47368;DHT22;34646;47.964;7.982;2023-06-22T05:28:12;22.50;91.90
47368;DHT22;34646;47.964;7.982;2023-06-22T05:34:14;22.20;91.70
47368;DHT22;34646;47.964;7.982;2023-06-22T05:46:16;22.80;91.80
47368;DHT22;34646;47.964;7.982;2023-06-22T05:58:18;22.90;89.70
47368;DHT22;34646;47.964;7.982;2023-06-22T06:04:19;22.80;91.60
47368;DHT22;34646;47.964;7.982;2023-06-22T06:10:20;22.70;91.50
47368;DHT22;34646;47.964;7.982;2023-06-22T06:16:20;22.80;91.50
47368;DHT22;34646;47.964;7.982;2023-06-22T06:22:21;22.50;91.40
47368;DHT22;34646;47.964;7.982;2023-06-22T06:28:25;22.80;91.50
47368;DHT22;34646;47.964;7.982;2023-06-22T06:40:27;23.00;91.50
47368;DHT22;34646;47.964;7.982;2023-06-22T06:46:27;22.70;91.40
47368;DHT22;34646;47.964;7.982;2023-06-22T06:52:28;22.60;91.40
47368;DHT22;34646;47.964;7.982;2023-06-22T06:58:29;22.70;91.40
47368;DHT22;34646;47.964;7.982;2023-06-22T07:04:29;22.90;91.50
47368;DHT22;34646;47.964;7.982;2023-06-22T07:16:31;23.40;85.90
47368;DHT22;34646;47.964;7.982;2023-06-22T07:22:33;22.90;86.10
47368;DHT22;34646;47.964;7.982;2023-06-22T07:28:33;23.00;89.20
47368;DHT22;34646;47.964;7.982;2023-06-22T07:34:38;22.80;91.50
47368;DHT22;34646;47.964;7.982;2023-06-22T07:40:38;22.30;91.30
47368;DHT22;34646;47.964;7.982;2023-06-22T07:46:39;23.20;91.60
47368;DHT22;34646;47.964;7.982;2023-06-22T07:52:40;22.70;91.40
47368;DHT22;34646;47.964;7.982;2023-06-22T07:58:40;23.30;91.60
47368;DHT22;34646;47.964;7.982;2023-06-22T08:04:41;23.00;91.60
47368;DHT22;34646;47.964;7.982;2023-06-22T08:10:42;23.00;91.50
47368;DHT22;34646;47.964;7.982;2023-06-22T08:16:43;23.10;91.50
47368;DHT22;34646;47.964;7.982;2023-06-22T08:22:44;22.70;91.50
47368;DHT22;34646;47.964;7.982;2023-06-22T08:28:44;22.60;91.40
47368;DHT22;34646;47.964;7.982;2023-06-22T08:34:45;23.10;91.80
47368;DHT22;34646;47.964;7.982;2023-06-22T08:40:46;22.80;91.50
47368;DHT22;34646;47.964;7.982;2023-06-22T08:46:47;22.70;85.00
47368;DHT22;34646;47.964;7.982;2023-06-22T08:52:48;21.80;82.40
47368;DHT22;34646;47.964;7.982;2023-06-22T08:58:49;22.90;91.50
47368;DHT22;34646;47.964;7.982;2023-06-22T09:04:49;22.80;91.50
47368;DHT22;34646;47.964;7.982;2023-06-22T09:10:56;23.20;91.70
47368;DHT22;34646;47.964;7.982;2023-06-22T09:16:56;23.00;91.60
47368;DHT22;34646;47.964;7.982;2023-06-22T09:22:57;23.10;90.90
47368;DHT22;34646;47.964;7.982;2023-06-22T09:28:58;22.90;91.60
47368;DHT22;34646;47.964;7.982;2023-06-22T09:35:02;22.70;91.50
47368;DHT22;34646;47.964;7.982;2023-06-22T09:41:02;22.90;91.50
47368;DHT22;34646;47.964;7.982;2023-06-22T09:47:03;23.10;91.60
47368;DHT22;34646;47.964;7.982;2023-06-22T09:59:05;23.10;91.60
47368;DHT22;34646;47.964;7.982;2023-06-22T10:05:06;23.10;91.60
47368;DHT22;34646;47.964;7.982;2023-06-22T10:11:08;22.90;91.50
47368;DHT22;34646;47.964;7.982;2023-06-22T10:17:08;23.00;91.60
47368;DHT22;34646;47.964;7.982;2023-06-22T10:23:09;23.30;91.70
47368;DHT22;34646;47.964;7.982;2023-06-22T10:29:10;23.40;91.80
47368;DHT22;34646;47.964;7.982;2023-06-22T10:35:11;23.00;91.70
47368;DHT22;34646;47.964;7.982;2023-06-22T10:41:14;22.80;91.60
47368;DHT22;34646;47.964;7.982;2023-06-22T10:47:15;23.10;85.70
47368;DHT22;34646;47.964;7.982;2023-06-22T10:53:15;23.00;91.80
47368;DHT22;34646;47.964;7.982;2023-06-22T10:59:16;22.80;92.00
47368;DHT22;34646;47.964;7.982;2023-06-22T11:05:17;23.30;91.40
47368;DHT22;34646;47.964;7.982;2023-06-22T11:17:18;23.30;86.70
47368;DHT22;34646;47.964;7.982;2023-06-22T11:23:19;22.90;92.00
47368;DHT22;34646;47.964;7.982;2023-06-22T11:29:20;23.50;92.20
47368;DHT22;34646;47.964;7.982;2023-06-22T11:35:20;23.30;92.30
47368;DHT22;34646;47.964;7.982;2023-06-22T11:41:21;23.70;92.30
47368;DHT22;34646;47.964;7.982;2023-06-22T11:47:22;23.10;92.20
47368;DHT22;34646;47.964;7.982;2023-06-22T11:53:25;23.20;92.30
47368;DHT22;34646;47.964;7.982;2023-06-22T11:59:26;23.30;91.00
47368;DHT22;34646;47.964;7.982;2023-06-22T12:05:27;23.40;92.40
47368;DHT22;34646;47.964;7.982;2023-06-22T12:11:28;23.20;92.40
47368;DHT22;34646;47.964;7.982;2023-06-22T12:23:30;23.10;92.30
47368;DHT22;34646;47.964;7.982;2023-06-22T12:29:31;23.10;92.30
47368;DHT22;34646;47.964;7.982;2023-06-22T12:41:32;22.90;84.00
47368;DHT22;34646;47.964;7.982;2023-06-22T12:47:33;23.20;92.30
47368;DHT22;34646;47.964;7.982;2023-06-22T12:53:34;22.90;92.10
47368;DHT22;34646;47.964;7.982;2023-06-22T12:59:34;23.00;92.20
47368;DHT22;34646;47.964;7.982;2023-06-22T13:05:35;23.50;92.30
47368;DHT22;34646;47.964;7.982;2023-06-22T13:11:36;23.20;92.40
47368;DHT22;34646;47.964;7.982;2023-06-22T13:17:37;23.40;92.30
47368;DHT22;34646;47.964;7.982;2023-06-22T13:23:38;23.10;92.20
47368;DHT22;34646;47.964;7.982;2023-06-22T13:29:38;22.90;92.20
47368;DHT22;34646;47.964;7.982;2023-06-22T13:35:39;23.30;92.20
47368;DHT22;34646;47.964;7.982;2023-06-22T13:41:42;23.90;92.30
47368;DHT22;34646;47.964;7.982;2023-06-22T13:47:44;23.80;92.50
47368;DHT22;34646;47.964;7.982;2023-06-22T13:53:44;23.30;92.20
47368;DHT22;34646;47.964;7.982;2023-06-22T13:59:45;23.40;92.30
47368;DHT22;34646;47.964;7.982;2023-06-22T14:05:46;23.60;92.40
47368;DHT22;34646;47.964;7.982;2023-06-22T14:17:48;23.60;92.40
47368;DHT22;34646;47.964;7.982;2023-06-22T14:23:48;23.50;92.40
47368;DHT22;34646;47.964;7.982;2023-06-22T14:29:49;23.30;87.60
47368;DHT22;34646;47.964;7.982;2023-06-22T14:35:50;23.30;92.30
47368;DHT22;34646;47.964;7.982;2023-06-22T14:41:51;23.20;92.30
47368;DHT22;34646;47.964;7.982;2023-06-22T14:47:52;23.50;92.40
47368;DHT22;34646;47.964;7.982;2023-06-22T14:53:52;22.90;92.20
47368;DHT22;34646;47.964;7.982;2023-06-22T14:59:53;23.80;92.40
47368;DHT22;34646;47.964;7.982;2023-06-22T15:05:54;23.80;92.40
47368;DHT22;34646;47.964;7.982;2023-06-22T15:11:55;23.00;92.20
47368;DHT22;34646;47.964;7.982;2023-06-22T15:17:56;23.60;92.40
47368;DHT22;34646;47.964;7.982;2023-06-22T15:23:56;23.20;92.30
47368;DHT22;34646;47.964;7.982;2023-06-22T15:35:58;23.70;87.70
47368;DHT22;34646;47.964;7.982;2023-06-22T15:42:04;23.20;92.60
47368;DHT22;34646;47.964;7.982;2023-06-22T15:48:05;23.10;92.70
47368;DHT22;34646;47.964;7.982;2023-06-22T15:54:05;23.80;93.00
47368;DHT22;34646;47.964;7.982;2023-06-22T16:00:07;23.70;93.00
47368;DHT22;34646;47.964;7.982;2023-06-22T16:06:08;23.40;92.50
47368;DHT22;34646;47.964;7.982;2023-06-22T16:12:08;23.30;92.00
47368;DHT22;34646;47.964;7.982;2023-06-22T16:18:09;23.00;92.00
47368;DHT22;34646;47.964;7.982;2023-06-22T16:24:10;23.60;92.20
47368;DHT22;34646;47.964;7.982;2023-06-22T16:30:11;22.90;91.40
47368;DHT22;34646;47.964;7.982;2023-06-22T16:36:12;23.50;91.80
47368;DHT22;34646;47.964;7.982;2023-06-22T16:42:13;23.40;91.80
47368;DHT22;34646;47.964;7.982;2023-06-22T16:48:14;23.10;91.70
47368;DHT22;34646;47.964;7.982;2023-06-22T16:54:14;23.10;91.30
47368;DHT22;34646;47.964;7.982;2023-06-22T17:00:16;23.20;91.70
47368;DHT22;34646;47.964;7.982;2023-06-22T17:06:18;23.40;84.90
47368;DHT22;34646;47.964;7.982;2023-06-22T17:12:19;23.50;91.80
47368;DHT22;34646;47.964;7.982;2023-06-22T17:18:20;23.40;91.80
47368;DHT22;34646;47.964;7.982;2023-06-22T17:24:24;23.30;91.80
47368;DHT22;34646;47.964;7.982;2023-06-22T17:30:25;23.30;91.80
47368;DHT22;34646;47.964;7.982;2023-06-22T17:42:27;24.50;84.70
47368;DHT22;34646;47.964;7.982;2023-06-22T17:48:29;23.40;86.20
47368;DHT22;34646;47.964;7.982;2023-06-22T17:54:31;23.70;85.10
47368;DHT22;34646;47.964;7.982;2023-06-22T18:00:32;23.20;91.90
47368;DHT22;34646;47.964;7.982;2023-06-22T18:06:38;23.20;83.50
47368;DHT22;34646;47.964;7.982;2023-06-22T18:12:40;22.90;90.80
47368;DHT22;34646;47.964;7.982;2023-06-22T18:18:42;23.10;91.10
47368;DHT22;34646;47.964;7.982;2023-06-22T18:24:42;23.50;91.10
47368;DHT22;34646;47.964;7.982;2023-06-22T18:30:44;23.30;91.00
47368;DHT22;34646;47.964;7.982;2023-06-22T18:36:53;23.10;91.10
47368;DHT22;34646;47.964;7.982;2023-06-22T18:42:59;23.40;91.20
47368;DHT22;34646;47.964;7.982;2023-06-22T18:49:09;23.40;81.60
47368;DHT22;34646;47.964;7.982;2023-06-22T18:55:11;23.60;91.40
47368;DHT22;34646;47.964;7.982;2023-06-22T19:01:17;23.10;91.30
47368;DHT22;34646;47.964;7.982;2023-06-22T19:07:18;23.20;91.20
47368;DHT22;34646;47.964;7.982;2023-06-22T19:13:29;23.10;91.20
47368;DHT22;34646;47.964;7.982;2023-06-22T19:19:34;23.40;91.30
47368;DHT22;34646;47.964;7.982;2023-06-22T19:25:36;23.20;91.30
47368;DHT22;34646;47.964;7.982;2023-06-22T19:31:42;23.20;91.40
47368;DHT22;34646;47.964;7.982;2023-06-22T19:37:45;23.40;91.40
47368;DHT22;34646;47.964;7.982;2023-06-22T19:43:46;23.00;91.30
47368;DHT22;34646;47.964;7.982;2023-06-22T19:49:47;23.20;84.70
47368;DHT22;34646;47.964;7.982;2023-06-22T19:55:49;23.30;85.90
47368;DHT22;34646;47.964;7.982;2023-06-22T20:01:50;23.50;91.50
47368;DHT22;34646;47.964;7.982;2023-06-22T20:07:51;23.50;91.50
47368;DHT22;34646;47.964;7.982;2023-06-22T20:13:52;23.30;84.50
47368;DHT22;34646;47.964;7.982;2023-06-22T20:19:53;23.00;91.40
47368;DHT22;34646;47.964;7.982;2023-06-22T20:25:54;23.30;91.40
47368;DHT22;34646;47.964;7.982;2023-06-22T20:32:09;23.60;83.00
47368;DHT22;34646;47.964;7.982;2023-06-22T20:38:10;23.10;91.40
47368;DHT22;34646;47.964;7.982;2023-06-22T20:44:14;23.20;91.40
47368;DHT22;34646;47.964;7.982;2023-06-22T20:50:14;23.50;91.50
47368;DHT22;34646;47.964;7.982;2023-06-22T20:56:15;23.40;91.50
47368;DHT22;34646;47.964;7.982;2023-06-22T21:02:16;23.20;91.40
47368;DHT22;34646;47.964;7.982;2023-06-22T21:08:16;23.40;91.50
47368;DHT22;34646;47.964;7.982;2023-06-22T21:20:18;23.40;91.50
47368;DHT22;34646;47.964;7.982;2023-06-22T21:26:19;23.00;91.40
47368;DHT22;34646;47.964;7.982;2023-06-22T21:32:20;23.40;91.50
47368;DHT22;34646;47.964;7.982;2023-06-22T21:38:21;22.60;91.30
47368;DHT22;34646;47.964;7.982;2023-06-22T21:44:21;23.50;91.50
47368;DHT22;34646;47.964;7.982;2023-06-22T21:50:22;23.10;91.40
47368;DHT22;34646;47.964;7.982;2023-06-22T21:56:23;23.00;91.40
47368;DHT22;34646;47.964;7.982;2023-06-22T22:08:24;22.90;91.40
47368;DHT22;34646;47.964;7.982;2023-06-22T22:14:25;23.30;91.50
47368;DHT22;34646;47.964;7.982;2023-06-22T22:20:26;23.00;91.40
47368;DHT22;34646;47.964;7.982;2023-06-22T22:26:27;23.30;91.40
47368;DHT22;34646;47.964;7.982;2023-06-22T22:32:27;23.00;91.40
47368;DHT22;34646;47.964;7.982;2023-06-22T22:38:28;23.40;91.40
47368;DHT22;34646;47.964;7.982;2023-06-22T22:44:29;23.30;91.40
47368;DHT22;34646;47.964;7.982;2023-06-22T22:56:30;23.60;91.50
47368;DHT22;34646;47.964;7.982;2023-06-22T23:02:31;23.20;91.40
47368;DHT22;34646;47.964;7.982;2023-06-22T23:08:32;23.30;91.40
47368;DHT22;34646;47.964;7.982;2023-06-22T23:14:32;23.00;91.30
47368;DHT22;34646;47.964;7.982;2023-06-22T23:20:33;23.10;91.40
47368;DHT22;34646;47.964;7.982;2023-06-22T23:26:34;22.80;91.30
47368;DHT22;34646;47.964;7.982;2023-06-22T23:32:35;22.70;91.30
47368;DHT22;34646;47.964;7.982;2023-06-22T23:38:36;23.60;91.50
47368;DHT22;34646;47.964;7.982;2023-06-22T23:44:39;23.10;91.40
47368;DHT22;34646;47.964;7.982;2023-06-22T23:50:40;23.20;91.40
